Terminal Aerodrome Forecast
Issued by NWS

Home | Current Version | Previous Version | Text Only | Print | Product List | Glossary Off
Versions: 1 2 3 4 5 6 7 8 9 10 11 12 13 14

996
FTUS43 KBIS 190647 AAA
TAFJMS
TAF AMD
KJMS 190647Z 1907/2006 01019G26KT P6SM SCT015 BKN045
      TEMPO 1907/1908 SCT025 BKN120
     FM190800 36016G24KT P6SM FEW015 BKN140
     FM191000 36014KT P6SM SCT250
     FM191200 01014G22KT P6SM SCT200
     FM191600 03019G26KT P6SM FEW250
     FM200000 03007KT P6SM FEW250=

USA.gov is the U.S. government's official web portal to all federal, state and local government web resources and services.